Airfield :
LOGIN :

Register | Disclaimer

   EN    FR    IT 

 










Legend :    VFR   Marginal VFR   IFR   Intensive IFR   Very Intensive IFR
Visi :
Ceiling :
>= 8 km
>= 3000ft
5 to 8 km
1000 to 3000 ft
1500m to 5 km
500 to 1000 ft
800 to 1500m
200 to 500 ft
< 800m
< 200 ft
Symbols :   Thunderstorms  Fog  Heavy snow  Heavy precipitations  Wind > 20 kt
SIGMETs :     Misc.  Thunderstorms  Icing  Turbulence  Mountain Waves  Volcanic Ashes







- Airport Elevation : 919 ft
- IATA code : IFO


UKLI - Ivano Frankivs'k

CURRENT METAR :
  • 121600Z 29002MPS 9999 SCT040 BKN100 M00/M03 Q1017 R28/090070 NOSIG

EXPIRED METARs :
  • 121530Z 29002MPS 9999 SCT043 BKN100 M00/M03 Q1017 R28/090070 NOSIG
  • 121500Z 31003MPS 260V350 9999 SCT043 BKN100 01/M03 Q1017 R28/090070 NOSIG
  • 121430Z 31002MPS 9999 SCT046 BKN100 01/M03 Q1017 R28/090070 NOSIG
  • 121400Z 31003MPS 260V360 9999 SCT046 BKN100 01/M03 Q1017 R28/090070 NOSIG
  • 121330Z 36002MPS 330V040 9999 BKN046 BKN100 01/M03 Q1016 R28/090070 NOSIG

TAF TAF UKLI
Valid from the 12 at 15:00 until the 13 at 00:00 UTC


121404Z 1215/1224 30003MPS 9999 BKN030 TX00/1215Z TNM03/1224Z
TEMPO 1215/1224 32005G10MPS 2100 -SHSN BKN007 BKN010CB
No reported NOTAMs for that airfield.



MET'MAP, your aeronautical weather chart ! - Copyright ORBIFLY December 2007 - Disclaimer

ORBIFLY MET'MAP TEAM :

Programming & Development : Alexandra Zaïnal
Concept & Development : Baudouin d'Aumeries
Co-Development & Prog : Marc-Olivier Méhu
Technical & hardware support : Manuel Goepfert

Contact : metmap@orbifly.com




SOURCES & CREDITS :

   NOAA